sensor_id;sensor_type;location;lat;lon;timestamp;P1;durP1;ratioP1;P2;durP2;ratioP2
80384;SDS011;69702;44.618;33.604;2023-06-22T00:00:02;24.73;;;15.37;;
80384;SDS011;69702;44.618;33.604;2023-06-22T00:02:38;21.88;;;14.30;;
80384;SDS011;69702;44.618;33.604;2023-06-22T00:05:04;20.53;;;15.10;;
80384;SDS011;69702;44.618;33.604;2023-06-22T00:07:29;21.75;;;15.20;;
80384;SDS011;69702;44.618;33.604;2023-06-22T00:09:55;20.60;;;14.85;;
80384;SDS011;69702;44.618;33.604;2023-06-22T00:12:21;21.20;;;14.30;;
80384;SDS011;69702;44.618;33.604;2023-06-22T00:14:47;20.60;;;14.52;;
80384;SDS011;69702;44.618;33.604;2023-06-22T00:17:12;22.27;;;14.90;;
80384;SDS011;69702;44.618;33.604;2023-06-22T00:19:38;19.63;;;13.98;;
80384;SDS011;69702;44.618;33.604;2023-06-22T00:22:06;19.92;;;14.25;;
80384;SDS011;69702;44.618;33.604;2023-06-22T00:24:31;21.17;;;14.67;;
80384;SDS011;69702;44.618;33.604;2023-06-22T00:26:57;20.27;;;14.75;;
80384;SDS011;69702;44.618;33.604;2023-06-22T00:29:23;20.53;;;14.83;;
80384;SDS011;69702;44.618;33.604;2023-06-22T00:31:49;26.67;;;16.52;;
80384;SDS011;69702;44.618;33.604;2023-06-22T00:34:15;25.90;;;16.70;;
80384;SDS011;69702;44.618;33.604;2023-06-22T00:36:41;27.27;;;17.67;;
80384;SDS011;69702;44.618;33.604;2023-06-22T00:39:07;24.75;;;16.30;;
80384;SDS011;69702;44.618;33.604;2023-06-22T00:41:33;23.73;;;16.98;;
80384;SDS011;69702;44.618;33.604;2023-06-22T00:43:59;26.10;;;17.13;;
80384;SDS011;69702;44.618;33.604;2023-06-22T00:46:25;28.08;;;17.50;;
80384;SDS011;69702;44.618;33.604;2023-06-22T00:48:51;24.85;;;17.58;;
80384;SDS011;69702;44.618;33.604;2023-06-22T00:51:17;24.37;;;17.40;;
80384;SDS011;69702;44.618;33.604;2023-06-22T00:53:50;23.23;;;16.65;;
80384;SDS011;69702;44.618;33.604;2023-06-22T00:56:17;23.73;;;16.70;;
80384;SDS011;69702;44.618;33.604;2023-06-22T00:58:46;26.27;;;16.80;;
80384;SDS011;69702;44.618;33.604;2023-06-22T01:01:13;22.70;;;15.95;;
80384;SDS011;69702;44.618;33.604;2023-06-22T01:03:39;23.50;;;15.57;;
80384;SDS011;69702;44.618;33.604;2023-06-22T01:06:10;20.48;;;14.73;;
80384;SDS011;69702;44.618;33.604;2023-06-22T01:11:08;23.67;;;15.95;;
80384;SDS011;69702;44.618;33.604;2023-06-22T01:16:09;22.00;;;15.38;;
80384;SDS011;69702;44.618;33.604;2023-06-22T01:18:38;21.48;;;15.57;;
80384;SDS011;69702;44.618;33.604;2023-06-22T01:21:05;23.63;;;15.77;;
80384;SDS011;69702;44.618;33.604;2023-06-22T01:23:39;21.92;;;16.02;;
80384;SDS011;69702;44.618;33.604;2023-06-22T01:26:21;24.05;;;16.63;;
80384;SDS011;69702;44.618;33.604;2023-06-22T01:28:52;22.52;;;15.20;;
80384;SDS011;69702;44.618;33.604;2023-06-22T01:31:19;23.98;;;16.50;;
80384;SDS011;69702;44.618;33.604;2023-06-22T01:33:47;23.33;;;16.92;;
80384;SDS011;69702;44.618;33.604;2023-06-22T01:36:14;23.30;;;15.48;;
80384;SDS011;69702;44.618;33.604;2023-06-22T01:38:40;25.13;;;16.70;;
80384;SDS011;69702;44.618;33.604;2023-06-22T01:41:07;21.92;;;15.95;;
80384;SDS011;69702;44.618;33.604;2023-06-22T01:43:33;23.13;;;16.65;;
80384;SDS011;69702;44.618;33.604;2023-06-22T01:46:01;22.13;;;16.65;;
80384;SDS011;69702;44.618;33.604;2023-06-22T01:48:27;22.40;;;15.67;;
80384;SDS011;69702;44.618;33.604;2023-06-22T01:50:54;22.30;;;15.75;;
80384;SDS011;69702;44.618;33.604;2023-06-22T01:53:24;23.65;;;16.95;;
80384;SDS011;69702;44.618;33.604;2023-06-22T01:55:51;20.20;;;15.70;;
80384;SDS011;69702;44.618;33.604;2023-06-22T01:58:17;22.07;;;15.57;;
80384;SDS011;69702;44.618;33.604;2023-06-22T02:00:50;21.77;;;15.57;;
80384;SDS011;69702;44.618;33.604;2023-06-22T02:03:19;21.33;;;15.43;;
80384;SDS011;69702;44.618;33.604;2023-06-22T02:05:52;20.90;;;14.60;;
80384;SDS011;69702;44.618;33.604;2023-06-22T02:08:22;24.45;;;15.20;;
80384;SDS011;69702;44.618;33.604;2023-06-22T02:10:49;24.60;;;15.63;;
80384;SDS011;69702;44.618;33.604;2023-06-22T02:13:16;21.45;;;15.82;;
80384;SDS011;69702;44.618;33.604;2023-06-22T02:15:42;23.25;;;15.43;;
80384;SDS011;69702;44.618;33.604;2023-06-22T02:18:12;23.15;;;15.75;;
80384;SDS011;69702;44.618;33.604;2023-06-22T02:20:38;20.60;;;14.52;;
80384;SDS011;69702;44.618;33.604;2023-06-22T02:23:04;22.20;;;16.07;;
80384;SDS011;69702;44.618;33.604;2023-06-22T02:25:36;22.98;;;15.65;;
80384;SDS011;69702;44.618;33.604;2023-06-22T02:28:03;25.33;;;16.67;;
80384;SDS011;69702;44.618;33.604;2023-06-22T02:30:29;20.30;;;14.88;;
80384;SDS011;69702;44.618;33.604;2023-06-22T02:33:13;22.80;;;16.30;;
80384;SDS011;69702;44.618;33.604;2023-06-22T02:35:40;22.80;;;15.20;;
80384;SDS011;69702;44.618;33.604;2023-06-22T02:38:36;21.17;;;15.18;;
80384;SDS011;69702;44.618;33.604;2023-06-22T02:41:06;21.25;;;14.07;;
80384;SDS011;69702;44.618;33.604;2023-06-22T02:43:32;22.63;;;14.82;;
80384;SDS011;69702;44.618;33.604;2023-06-22T02:45:58;20.23;;;15.47;;
80384;SDS011;69702;44.618;33.604;2023-06-22T02:48:24;20.45;;;14.95;;
80384;SDS011;69702;44.618;33.604;2023-06-22T02:50:50;22.42;;;14.50;;
80384;SDS011;69702;44.618;33.604;2023-06-22T02:53:16;22.40;;;14.37;;
80384;SDS011;69702;44.618;33.604;2023-06-22T02:55:45;18.00;;;13.55;;
80384;SDS011;69702;44.618;33.604;2023-06-22T02:58:11;20.00;;;13.13;;
80384;SDS011;69702;44.618;33.604;2023-06-22T03:00:38;20.13;;;13.25;;
80384;SDS011;69702;44.618;33.604;2023-06-22T03:03:07;19.60;;;13.02;;
80384;SDS011;69702;44.618;33.604;2023-06-22T03:05:33;18.35;;;12.93;;
80384;SDS011;69702;44.618;33.604;2023-06-22T03:08:06;19.13;;;12.83;;
80384;SDS011;69702;44.618;33.604;2023-06-22T03:10:33;18.52;;;12.77;;
80384;SDS011;69702;44.618;33.604;2023-06-22T03:12:59;18.98;;;13.30;;
80384;SDS011;69702;44.618;33.604;2023-06-22T03:15:25;19.60;;;12.80;;
80384;SDS011;69702;44.618;33.604;2023-06-22T03:17:51;21.50;;;13.40;;
80384;SDS011;69702;44.618;33.604;2023-06-22T03:20:17;18.58;;;12.90;;
80384;SDS011;69702;44.618;33.604;2023-06-22T03:22:44;20.50;;;13.75;;
80384;SDS011;69702;44.618;33.604;2023-06-22T03:25:11;20.95;;;12.75;;
80384;SDS011;69702;44.618;33.604;2023-06-22T03:27:40;18.63;;;13.43;;
80384;SDS011;69702;44.618;33.604;2023-06-22T03:30:08;18.85;;;12.70;;
80384;SDS011;69702;44.618;33.604;2023-06-22T03:32:34;21.27;;;13.60;;
80384;SDS011;69702;44.618;33.604;2023-06-22T03:35:00;17.37;;;13.20;;
80384;SDS011;69702;44.618;33.604;2023-06-22T03:37:31;18.58;;;12.50;;
80384;SDS011;69702;44.618;33.604;2023-06-22T03:39:58;19.35;;;13.10;;
80384;SDS011;69702;44.618;33.604;2023-06-22T03:42:24;19.47;;;12.47;;
80384;SDS011;69702;44.618;33.604;2023-06-22T03:44:50;20.20;;;12.27;;
80384;SDS011;69702;44.618;33.604;2023-06-22T03:47:16;18.77;;;13.00;;
80384;SDS011;69702;44.618;33.604;2023-06-22T03:49:42;19.13;;;13.00;;
80384;SDS011;69702;44.618;33.604;2023-06-22T03:52:08;21.30;;;13.77;;
80384;SDS011;69702;44.618;33.604;2023-06-22T03:54:44;17.27;;;12.55;;
80384;SDS011;69702;44.618;33.604;2023-06-22T03:57:10;18.92;;;11.57;;
80384;SDS011;69702;44.618;33.604;2023-06-22T03:59:36;21.02;;;12.90;;
80384;SDS011;69702;44.618;33.604;2023-06-22T04:02:02;18.73;;;12.33;;
80384;SDS011;69702;44.618;33.604;2023-06-22T04:04:28;16.55;;;10.98;;
80384;SDS011;69702;44.618;33.604;2023-06-22T04:06:54;17.00;;;11.30;;
80384;SDS011;69702;44.618;33.604;2023-06-22T04:09:19;17.40;;;11.40;;
80384;SDS011;69702;44.618;33.604;2023-06-22T04:11:47;16.05;;;12.00;;
80384;SDS011;69702;44.618;33.604;2023-06-22T04:14:13;19.25;;;12.27;;
80384;SDS011;69702;44.618;33.604;2023-06-22T04:16:39;18.43;;;12.07;;
80384;SDS011;69702;44.618;33.604;2023-06-22T04:19:04;17.77;;;11.70;;
80384;SDS011;69702;44.618;33.604;2023-06-22T04:21:31;16.70;;;12.13;;
80384;SDS011;69702;44.618;33.604;2023-06-22T04:23:57;18.85;;;12.00;;
80384;SDS011;69702;44.618;33.604;2023-06-22T04:26:22;20.60;;;11.80;;
80384;SDS011;69702;44.618;33.604;2023-06-22T04:28:48;19.57;;;12.23;;
80384;SDS011;69702;44.618;33.604;2023-06-22T04:31:17;17.00;;;12.10;;
80384;SDS011;69702;44.618;33.604;2023-06-22T04:33:44;17.40;;;11.90;;
80384;SDS011;69702;44.618;33.604;2023-06-22T04:36:10;18.08;;;11.77;;
80384;SDS011;69702;44.618;33.604;2023-06-22T04:38:39;16.40;;;12.33;;
80384;SDS011;69702;44.618;33.604;2023-06-22T04:41:05;18.10;;;12.77;;
80384;SDS011;69702;44.618;33.604;2023-06-22T04:43:33;18.27;;;11.40;;
80384;SDS011;69702;44.618;33.604;2023-06-22T04:45:59;21.08;;;11.25;;
80384;SDS011;69702;44.618;33.604;2023-06-22T04:48:29;17.58;;;11.63;;
80384;SDS011;69702;44.618;33.604;2023-06-22T04:50:59;18.40;;;11.53;;
80384;SDS011;69702;44.618;33.604;2023-06-22T04:53:30;20.17;;;11.98;;
80384;SDS011;69702;44.618;33.604;2023-06-22T04:55:56;16.38;;;11.73;;
80384;SDS011;69702;44.618;33.604;2023-06-22T04:58:22;24.17;;;11.80;;
80384;SDS011;69702;44.618;33.604;2023-06-22T05:00:47;14.87;;;10.33;;
80384;SDS011;69702;44.618;33.604;2023-06-22T05:03:13;16.38;;;11.63;;
80384;SDS011;69702;44.618;33.604;2023-06-22T05:05:39;14.67;;;10.43;;
80384;SDS011;69702;44.618;33.604;2023-06-22T05:08:05;15.57;;;10.93;;
80384;SDS011;69702;44.618;33.604;2023-06-22T05:10:32;18.80;;;10.90;;
80384;SDS011;69702;44.618;33.604;2023-06-22T05:12:58;15.60;;;10.63;;
80384;SDS011;69702;44.618;33.604;2023-06-22T05:15:24;15.82;;;11.43;;
80384;SDS011;69702;44.618;33.604;2023-06-22T05:17:53;14.73;;;11.55;;
80384;SDS011;69702;44.618;33.604;2023-06-22T05:20:19;18.67;;;12.73;;
80384;SDS011;69702;44.618;33.604;2023-06-22T05:22:45;20.55;;;12.70;;
80384;SDS011;69702;44.618;33.604;2023-06-22T05:25:11;17.90;;;11.67;;
80384;SDS011;69702;44.618;33.604;2023-06-22T05:27:37;20.50;;;12.33;;
80384;SDS011;69702;44.618;33.604;2023-06-22T05:30:06;18.35;;;11.18;;
80384;SDS011;69702;44.618;33.604;2023-06-22T05:32:32;17.83;;;10.73;;
80384;SDS011;69702;44.618;33.604;2023-06-22T05:34:59;17.92;;;10.45;;
80384;SDS011;69702;44.618;33.604;2023-06-22T05:37:25;14.35;;;10.32;;
80384;SDS011;69702;44.618;33.604;2023-06-22T05:39:52;15.37;;;10.33;;
80384;SDS011;69702;44.618;33.604;2023-06-22T05:42:19;15.65;;;10.65;;
80384;SDS011;69702;44.618;33.604;2023-06-22T05:44:45;16.13;;;11.40;;
80384;SDS011;69702;44.618;33.604;2023-06-22T05:47:12;16.33;;;12.18;;
80384;SDS011;69702;44.618;33.604;2023-06-22T05:49:38;17.17;;;11.23;;
80384;SDS011;69702;44.618;33.604;2023-06-22T05:52:04;19.27;;;12.77;;
80384;SDS011;69702;44.618;33.604;2023-06-22T05:54:29;14.93;;;11.70;;
80384;SDS011;69702;44.618;33.604;2023-06-22T05:56:55;20.70;;;13.77;;
80384;SDS011;69702;44.618;33.604;2023-06-22T05:59:21;15.05;;;12.13;;
80384;SDS011;69702;44.618;33.604;2023-06-22T06:01:47;15.23;;;12.57;;
80384;SDS011;69702;44.618;33.604;2023-06-22T06:04:17;19.13;;;12.00;;
80384;SDS011;69702;44.618;33.604;2023-06-22T06:06:42;18.98;;;14.45;;
80384;SDS011;69702;44.618;33.604;2023-06-22T06:09:08;22.93;;;15.20;;
80384;SDS011;69702;44.618;33.604;2023-06-22T06:11:34;17.85;;;14.60;;
80384;SDS011;69702;44.618;33.604;2023-06-22T06:14:00;23.03;;;15.47;;
80384;SDS011;69702;44.618;33.604;2023-06-22T06:16:25;19.05;;;16.10;;
80384;SDS011;69702;44.618;33.604;2023-06-22T06:18:51;22.97;;;16.67;;
80384;SDS011;69702;44.618;33.604;2023-06-22T06:21:19;19.30;;;17.05;;
80384;SDS011;69702;44.618;33.604;2023-06-22T06:23:44;19.52;;;17.10;;
80384;SDS011;69702;44.618;33.604;2023-06-22T06:26:10;15.70;;;11.63;;
80384;SDS011;69702;44.618;33.604;2023-06-22T06:28:36;16.20;;;10.75;;
80384;SDS011;69702;44.618;33.604;2023-06-22T06:31:02;16.80;;;10.80;;
80384;SDS011;69702;44.618;33.604;2023-06-22T06:33:28;16.03;;;11.33;;
80384;SDS011;69702;44.618;33.604;2023-06-22T06:35:53;15.18;;;10.45;;
80384;SDS011;69702;44.618;33.604;2023-06-22T06:38:21;15.95;;;11.25;;
80384;SDS011;69702;44.618;33.604;2023-06-22T06:40:47;13.03;;;9.00;;
80384;SDS011;69702;44.618;33.604;2023-06-22T06:43:14;10.52;;;8.60;;
80384;SDS011;69702;44.618;33.604;2023-06-22T06:45:40;14.50;;;9.60;;
80384;SDS011;69702;44.618;33.604;2023-06-22T06:48:06;12.45;;;8.65;;
80384;SDS011;69702;44.618;33.604;2023-06-22T06:50:31;11.43;;;8.33;;
80384;SDS011;69702;44.618;33.604;2023-06-22T06:52:57;12.30;;;8.57;;
80384;SDS011;69702;44.618;33.604;2023-06-22T06:55:24;12.95;;;8.70;;
80384;SDS011;69702;44.618;33.604;2023-06-22T06:57:51;10.57;;;8.27;;
80384;SDS011;69702;44.618;33.604;2023-06-22T07:00:18;11.10;;;8.07;;
80384;SDS011;69702;44.618;33.604;2023-06-22T07:02:44;13.65;;;9.43;;
80384;SDS011;69702;44.618;33.604;2023-06-22T07:05:12;13.73;;;8.60;;
80384;SDS011;69702;44.618;33.604;2023-06-22T07:07:38;11.23;;;7.75;;
80384;SDS011;69702;44.618;33.604;2023-06-22T07:10:07;10.30;;;8.33;;
80384;SDS011;69702;44.618;33.604;2023-06-22T07:12:33;12.37;;;7.80;;
80384;SDS011;69702;44.618;33.604;2023-06-22T07:15:05;11.10;;;7.20;;
80384;SDS011;69702;44.618;33.604;2023-06-22T07:17:34;11.80;;;7.85;;
80384;SDS011;69702;44.618;33.604;2023-06-22T07:20:00;10.15;;;8.02;;
80384;SDS011;69702;44.618;33.604;2023-06-22T07:22:26;12.00;;;8.23;;
80384;SDS011;69702;44.618;33.604;2023-06-22T07:24:51;16.13;;;10.10;;
80384;SDS011;69702;44.618;33.604;2023-06-22T07:27:17;16.27;;;10.33;;
80384;SDS011;69702;44.618;33.604;2023-06-22T07:29:46;16.58;;;12.02;;
80384;SDS011;69702;44.618;33.604;2023-06-22T07:32:12;16.27;;;11.70;;
80384;SDS011;69702;44.618;33.604;2023-06-22T07:34:38;19.83;;;11.00;;
80384;SDS011;69702;44.618;33.604;2023-06-22T07:37:04;19.33;;;9.77;;
80384;SDS011;69702;44.618;33.604;2023-06-22T07:39:30;20.70;;;10.60;;
80384;SDS011;69702;44.618;33.604;2023-06-22T07:41:56;17.50;;;10.27;;
80384;SDS011;69702;44.618;33.604;2023-06-22T07:44:21;13.05;;;10.50;;
80384;SDS011;69702;44.618;33.604;2023-06-22T07:46:47;18.43;;;11.43;;
80384;SDS011;69702;44.618;33.604;2023-06-22T07:49:13;14.05;;;10.65;;
80384;SDS011;69702;44.618;33.604;2023-06-22T07:51:39;17.65;;;11.32;;
80384;SDS011;69702;44.618;33.604;2023-06-22T07:54:05;17.13;;;10.68;;
80384;SDS011;69702;44.618;33.604;2023-06-22T07:56:31;18.77;;;10.57;;
80384;SDS011;69702;44.618;33.604;2023-06-22T07:58:57;16.00;;;10.52;;
80384;SDS011;69702;44.618;33.604;2023-06-22T08:01:24;15.85;;;11.93;;
80384;SDS011;69702;44.618;33.604;2023-06-22T08:03:53;19.92;;;13.77;;
80384;SDS011;69702;44.618;33.604;2023-06-22T08:06:19;17.23;;;10.90;;
80384;SDS011;69702;44.618;33.604;2023-06-22T08:08:45;15.38;;;11.55;;
80384;SDS011;69702;44.618;33.604;2023-06-22T08:11:13;16.85;;;10.35;;
80384;SDS011;69702;44.618;33.604;2023-06-22T08:13:39;13.48;;;10.65;;
80384;SDS011;69702;44.618;33.604;2023-06-22T08:16:05;15.02;;;10.25;;
80384;SDS011;69702;44.618;33.604;2023-06-22T08:18:30;16.57;;;12.20;;
80384;SDS011;69702;44.618;33.604;2023-06-22T08:20:56;14.35;;;11.88;;
80384;SDS011;69702;44.618;33.604;2023-06-22T08:23:22;16.48;;;9.98;;
80384;SDS011;69702;44.618;33.604;2023-06-22T08:25:48;13.53;;;10.20;;
80384;SDS011;69702;44.618;33.604;2023-06-22T08:28:15;12.75;;;9.15;;
80384;SDS011;69702;44.618;33.604;2023-06-22T08:30:41;15.52;;;9.52;;
80384;SDS011;69702;44.618;33.604;2023-06-22T08:33:07;13.00;;;10.50;;
80384;SDS011;69702;44.618;33.604;2023-06-22T08:35:33;13.13;;;10.23;;
80384;SDS011;69702;44.618;33.604;2023-06-22T08:38:01;14.10;;;10.88;;
80384;SDS011;69702;44.618;33.604;2023-06-22T08:40:27;15.35;;;10.23;;
80384;SDS011;69702;44.618;33.604;2023-06-22T08:42:54;13.75;;;9.35;;
80384;SDS011;69702;44.618;33.604;2023-06-22T08:45:21;15.10;;;10.80;;
80384;SDS011;69702;44.618;33.604;2023-06-22T08:47:47;17.58;;;11.02;;
80384;SDS011;69702;44.618;33.604;2023-06-22T08:50:14;18.23;;;11.93;;
80384;SDS011;69702;44.618;33.604;2023-06-22T08:52:40;19.08;;;11.32;;
80384;SDS011;69702;44.618;33.604;2023-06-22T08:55:09;15.38;;;10.40;;
80384;SDS011;69702;44.618;33.604;2023-06-22T08:57:36;17.15;;;11.70;;
80384;SDS011;69702;44.618;33.604;2023-06-22T09:00:05;17.85;;;12.13;;
80384;SDS011;69702;44.618;33.604;2023-06-22T09:02:36;16.13;;;12.20;;
80384;SDS011;69702;44.618;33.604;2023-06-22T09:05:03;19.98;;;12.32;;
80384;SDS011;69702;44.618;33.604;2023-06-22T09:07:29;14.32;;;11.70;;
80384;SDS011;69702;44.618;33.604;2023-06-22T09:09:55;19.87;;;12.87;;
80384;SDS011;69702;44.618;33.604;2023-06-22T09:12:21;15.15;;;11.73;;
80384;SDS011;69702;44.618;33.604;2023-06-22T09:14:54;16.95;;;11.80;;
80384;SDS011;69702;44.618;33.604;2023-06-22T09:17:20;14.23;;;10.87;;
80384;SDS011;69702;44.618;33.604;2023-06-22T09:19:45;20.55;;;11.38;;
80384;SDS011;69702;44.618;33.604;2023-06-22T09:22:12;16.88;;;10.90;;
80384;SDS011;69702;44.618;33.604;2023-06-22T09:24:38;14.47;;;9.77;;
80384;SDS011;69702;44.618;33.604;2023-06-22T09:27:04;14.13;;;10.95;;
80384;SDS011;69702;44.618;33.604;2023-06-22T09:29:30;16.67;;;13.18;;
80384;SDS011;69702;44.618;33.604;2023-06-22T09:31:59;12.77;;;9.73;;
80384;SDS011;69702;44.618;33.604;2023-06-22T09:34:26;15.60;;;10.93;;
80384;SDS011;69702;44.618;33.604;2023-06-22T09:36:51;16.15;;;11.23;;
80384;SDS011;69702;44.618;33.604;2023-06-22T09:39:17;13.97;;;10.70;;
80384;SDS011;69702;44.618;33.604;2023-06-22T09:41:44;13.60;;;9.63;;
80384;SDS011;69702;44.618;33.604;2023-06-22T09:44:22;13.32;;;9.80;;
80384;SDS011;69702;44.618;33.604;2023-06-22T09:46:47;14.77;;;10.18;;
80384;SDS011;69702;44.618;33.604;2023-06-22T09:49:13;14.57;;;9.87;;
80384;SDS011;69702;44.618;33.604;2023-06-22T09:51:42;13.38;;;9.40;;
80384;SDS011;69702;44.618;33.604;2023-06-22T09:54:08;13.38;;;9.55;;
80384;SDS011;69702;44.618;33.604;2023-06-22T09:56:34;12.70;;;10.23;;
80384;SDS011;69702;44.618;33.604;2023-06-22T09:59:00;12.50;;;9.23;;
80384;SDS011;69702;44.618;33.604;2023-06-22T10:01:25;12.37;;;8.80;;
80384;SDS011;69702;44.618;33.604;2023-06-22T10:03:55;16.38;;;9.15;;
80384;SDS011;69702;44.618;33.604;2023-06-22T10:06:24;11.95;;;8.75;;
80384;SDS011;69702;44.618;33.604;2023-06-22T10:08:51;11.90;;;8.30;;
80384;SDS011;69702;44.618;33.604;2023-06-22T10:11:17;13.33;;;7.90;;
80384;SDS011;69702;44.618;33.604;2023-06-22T10:13:42;14.43;;;8.70;;
80384;SDS011;69702;44.618;33.604;2023-06-22T10:16:09;13.13;;;7.90;;
80384;SDS011;69702;44.618;33.604;2023-06-22T10:18:35;11.35;;;8.80;;
80384;SDS011;69702;44.618;33.604;2023-06-22T10:21:00;12.27;;;8.50;;
80384;SDS011;69702;44.618;33.604;2023-06-22T10:23:26;12.20;;;9.82;;
80384;SDS011;69702;44.618;33.604;2023-06-22T10:25:52;17.40;;;8.87;;
80384;SDS011;69702;44.618;33.604;2023-06-22T10:28:18;13.18;;;9.07;;
80384;SDS011;69702;44.618;33.604;2023-06-22T10:30:44;15.63;;;9.20;;
80384;SDS011;69702;44.618;33.604;2023-06-22T10:33:10;17.67;;;9.07;;
80384;SDS011;69702;44.618;33.604;2023-06-22T10:35:37;22.92;;;16.65;;
80384;SDS011;69702;44.618;33.604;2023-06-22T10:38:05;15.73;;;11.88;;
80384;SDS011;69702;44.618;33.604;2023-06-22T10:40:31;13.27;;;9.75;;
80384;SDS011;69702;44.618;33.604;2023-06-22T10:43:00;21.20;;;12.77;;
80384;SDS011;69702;44.618;33.604;2023-06-22T10:45:26;15.80;;;9.50;;
80384;SDS011;69702;44.618;33.604;2023-06-22T10:47:53;16.38;;;10.60;;
80384;SDS011;69702;44.618;33.604;2023-06-22T10:50:18;14.90;;;9.77;;
80384;SDS011;69702;44.618;33.604;2023-06-22T10:52:45;14.73;;;8.30;;
80384;SDS011;69702;44.618;33.604;2023-06-22T10:55:11;13.50;;;8.45;;
80384;SDS011;69702;44.618;33.604;2023-06-22T10:57:37;15.20;;;9.10;;
80384;SDS011;69702;44.618;33.604;2023-06-22T11:00:07;11.83;;;8.50;;
80384;SDS011;69702;44.618;33.604;2023-06-22T11:02:34;12.80;;;8.25;;
80384;SDS011;69702;44.618;33.604;2023-06-22T11:05:00;10.27;;;6.97;;
80384;SDS011;69702;44.618;33.604;2023-06-22T11:07:26;11.52;;;7.45;;
80384;SDS011;69702;44.618;33.604;2023-06-22T11:09:54;12.47;;;6.70;;
80384;SDS011;69702;44.618;33.604;2023-06-22T11:12:20;10.80;;;7.00;;
80384;SDS011;69702;44.618;33.604;2023-06-22T11:14:46;10.70;;;6.85;;
80384;SDS011;69702;44.618;33.604;2023-06-22T11:17:12;11.83;;;7.47;;
80384;SDS011;69702;44.618;33.604;2023-06-22T11:19:37;11.65;;;7.50;;
80384;SDS011;69702;44.618;33.604;2023-06-22T11:22:04;13.63;;;9.20;;
80384;SDS011;69702;44.618;33.604;2023-06-22T11:24:29;12.77;;;7.63;;
80384;SDS011;69702;44.618;33.604;2023-06-22T11:26:55;12.73;;;8.00;;
80384;SDS011;69702;44.618;33.604;2023-06-22T11:29:21;13.27;;;7.60;;
80384;SDS011;69702;44.618;33.604;2023-06-22T11:31:50;13.00;;;7.70;;
80384;SDS011;69702;44.618;33.604;2023-06-22T11:34:18;10.93;;;6.78;;
80384;SDS011;69702;44.618;33.604;2023-06-22T11:36:44;12.20;;;7.20;;
80384;SDS011;69702;44.618;33.604;2023-06-22T11:39:11;13.70;;;8.70;;
80384;SDS011;69702;44.618;33.604;2023-06-22T11:41:40;13.55;;;7.28;;
80384;SDS011;69702;44.618;33.604;2023-06-22T11:44:09;11.85;;;7.25;;
80384;SDS011;69702;44.618;33.604;2023-06-22T11:46:35;12.40;;;7.20;;
80384;SDS011;69702;44.618;33.604;2023-06-22T11:49:04;13.70;;;7.53;;
80384;SDS011;69702;44.618;33.604;2023-06-22T11:51:32;14.50;;;6.97;;
80384;SDS011;69702;44.618;33.604;2023-06-22T11:53:59;18.55;;;7.07;;
80384;SDS011;69702;44.618;33.604;2023-06-22T11:56:25;11.70;;;7.47;;
80384;SDS011;69702;44.618;33.604;2023-06-22T11:58:50;12.65;;;7.30;;
80384;SDS011;69702;44.618;33.604;2023-06-22T12:01:24;9.53;;;6.60;;
80384;SDS011;69702;44.618;33.604;2023-06-22T12:03:49;15.05;;;7.05;;
80384;SDS011;69702;44.618;33.604;2023-06-22T12:06:17;12.98;;;7.60;;
80384;SDS011;69702;44.618;33.604;2023-06-22T12:08:42;11.93;;;7.22;;
80384;SDS011;69702;44.618;33.604;2023-06-22T12:11:08;11.37;;;7.30;;
80384;SDS011;69702;44.618;33.604;2023-06-22T12:13:34;9.05;;;6.38;;
80384;SDS011;69702;44.618;33.604;2023-06-22T12:16:00;9.40;;;7.30;;
80384;SDS011;69702;44.618;33.604;2023-06-22T12:18:25;10.45;;;6.95;;
80384;SDS011;69702;44.618;33.604;2023-06-22T12:20:51;11.23;;;7.03;;
80384;SDS011;69702;44.618;33.604;2023-06-22T12:23:17;10.00;;;6.65;;
80384;SDS011;69702;44.618;33.604;2023-06-22T12:25:44;10.53;;;7.03;;
80384;SDS011;69702;44.618;33.604;2023-06-22T12:28:10;10.48;;;7.07;;
80384;SDS011;69702;44.618;33.604;2023-06-22T12:30:36;11.95;;;7.00;;
80384;SDS011;69702;44.618;33.604;2023-06-22T12:33:01;11.33;;;7.17;;
80384;SDS011;69702;44.618;33.604;2023-06-22T12:35:27;11.93;;;7.03;;
80384;SDS011;69702;44.618;33.604;2023-06-22T12:37:53;11.43;;;6.93;;
80384;SDS011;69702;44.618;33.604;2023-06-22T12:40:19;13.43;;;6.95;;
80384;SDS011;69702;44.618;33.604;2023-06-22T12:42:45;11.70;;;7.13;;
80384;SDS011;69702;44.618;33.604;2023-06-22T12:45:11;10.77;;;6.33;;
80384;SDS011;69702;44.618;33.604;2023-06-22T12:47:37;11.10;;;6.78;;
80384;SDS011;69702;44.618;33.604;2023-06-22T12:50:02;9.03;;;6.30;;
80384;SDS011;69702;44.618;33.604;2023-06-22T12:52:32;9.23;;;7.03;;
80384;SDS011;69702;44.618;33.604;2023-06-22T12:55:00;12.57;;;7.82;;
80384;SDS011;69702;44.618;33.604;2023-06-22T12:57:30;9.07;;;6.68;;
80384;SDS011;69702;44.618;33.604;2023-06-22T12:59:56;11.90;;;7.47;;
80384;SDS011;69702;44.618;33.604;2023-06-22T13:02:23;11.35;;;6.70;;
80384;SDS011;69702;44.618;33.604;2023-06-22T13:04:49;12.18;;;7.68;;
80384;SDS011;69702;44.618;33.604;2023-06-22T13:07:15;12.90;;;6.70;;
80384;SDS011;69702;44.618;33.604;2023-06-22T13:09:41;11.40;;;7.30;;
80384;SDS011;69702;44.618;33.604;2023-06-22T13:12:10;10.35;;;7.60;;
80384;SDS011;69702;44.618;33.604;2023-06-22T13:14:36;13.80;;;7.80;;
80384;SDS011;69702;44.618;33.604;2023-06-22T13:17:02;11.30;;;7.10;;
80384;SDS011;69702;44.618;33.604;2023-06-22T13:19:30;11.77;;;7.33;;
80384;SDS011;69702;44.618;33.604;2023-06-22T13:21:58;11.60;;;6.60;;
80384;SDS011;69702;44.618;33.604;2023-06-22T13:24:24;12.55;;;7.38;;
80384;SDS011;69702;44.618;33.604;2023-06-22T13:26:50;12.20;;;6.68;;
80384;SDS011;69702;44.618;33.604;2023-06-22T13:29:16;9.20;;;7.17;;
80384;SDS011;69702;44.618;33.604;2023-06-22T13:31:42;11.10;;;6.55;;
80384;SDS011;69702;44.618;33.604;2023-06-22T13:34:07;15.13;;;7.07;;
80384;SDS011;69702;44.618;33.604;2023-06-22T13:36:33;13.38;;;7.10;;
80384;SDS011;69702;44.618;33.604;2023-06-22T13:38:59;12.50;;;7.18;;
80384;SDS011;69702;44.618;33.604;2023-06-22T13:41:25;13.47;;;7.23;;
80384;SDS011;69702;44.618;33.604;2023-06-22T13:43:51;12.65;;;6.30;;
80384;SDS011;69702;44.618;33.604;2023-06-22T13:46:17;11.80;;;6.35;;
80384;SDS011;69702;44.618;33.604;2023-06-22T13:48:43;10.53;;;7.10;;
80384;SDS011;69702;44.618;33.604;2023-06-22T13:51:09;14.60;;;7.03;;
80384;SDS011;69702;44.618;33.604;2023-06-22T13:53:34;13.50;;;5.77;;
80384;SDS011;69702;44.618;33.604;2023-06-22T13:56:00;9.90;;;5.60;;
80384;SDS011;69702;44.618;33.604;2023-06-22T13:58:26;13.00;;;6.43;;
80384;SDS011;69702;44.618;33.604;2023-06-22T14:00:52;13.57;;;5.38;;
80384;SDS011;69702;44.618;33.604;2023-06-22T14:03:17;8.07;;;4.72;;
80384;SDS011;69702;44.618;33.604;2023-06-22T14:05:43;8.27;;;5.37;;
80384;SDS011;69702;44.618;33.604;2023-06-22T14:08:09;6.43;;;4.60;;
80384;SDS011;69702;44.618;33.604;2023-06-22T14:10:35;6.40;;;4.57;;
80384;SDS011;69702;44.618;33.604;2023-06-22T14:13:00;6.97;;;4.30;;
80384;SDS011;69702;44.618;33.604;2023-06-22T14:15:26;8.90;;;4.60;;